Fruita, CO

6:38 AM MDT on October 21, 2014 (GMT -0600)
Canyonlands | Change Station
CLOSE
Current Station
Airport
Location: Moab,
Elevation: 4554 ft
Nearby Weather Stations

Elev 4554 ft 38.75 °N, 109.76 °W | Updated 45 minutes ago

Overcast
Overcast
61 °F
Feels Like 61 °F
N
5
Wind Variable Wind from ESE

Today
High -- | Low -- °F
--% Chance of Precip.
Yesterday
High -- | Low -- °F
Precip. -- in
7:30 AM 6:27 PM
Waning Crescent, 6% visible
Pressure 29.85 in
Visibility 10.0 miles
Clouds Clear
Dew Point 41 °F
Humidity 48%
Rainfall 0.00 in
Snow Depth Not available.
UV 0 out of 12
Pollen 1.90 out of 12
Air Quality Not available.
Flu Activity Sporadic
METAR KCNY 211153Z AUTO 12004KT 10SM CLR 16/05 A2999 RMK AO2 SLP108 T01610050 10172 20122 55002

More Conditions Fewer Conditions

Pressure 29.85 in
Visibility 10.0 miles
Clouds Clear
Dew Point 41 °F
Humidity 48%
Rainfall 0.00 in
Snow Depth Not available.
UV 0 out of 12
Pollen 1.90 out of 12
Air Quality Not available.
Flu Activity Sporadic
METAR KCNY 211153Z AUTO 12004KT 10SM CLR 16/05 A2999 RMK AO2 SLP108 T01610050 10172 20122 55002

More Conditions Fewer Conditions

10-Day Weather Forecast

Almanac

Astronomy

Oct. 21, 2014 Rise Set
Actual Time 7:30 AM MDT 6:27 PM MDT
Civil Twilight 7:03 AM MDT 6:54 PM MDT
Nautical Twilight 6:32 AM MDT 7:25 PM MDT
Astronomical Twilight 6:01 AM MDT 7:56 PM MDT
Moon 5:18 AM MDT 5:22 PM MDT
Length of Visible Light 11h 51m
Length of Day
10h 56m
Tomorrow will be 2m 23s shorter.
Waning Crescent, 6% of the Moon is Illuminated
Today
Waning Crescent
Oct 23
New
Oct 30
First Quarter
Nov 6
Full
Nov 14
Last Quarter

Today's Extremes

State Highs State Lows

Community

WunderPhotos

Upload Photos

1,763,647 photos uploaded!

Nearby

Snow Depth

Station Depth Elevation
Mesa Lakes 0 in 10000 ft
Park Reservoir 0 in 9960 ft
Columbine Pass 0 in 9400 ft
Overland Reservoir 0 in 9880 ft
McClure Pass 0 in 9500 ft

Earthquake Activity

City Distance Mag. Time & Date
No recent earthquake activity has been reported nearby.
Minimum magnitude displayed is 2.5.

Coastal Water Temperatures

Place Temperature
No Stations Reporting

Nearby Weather Stations